sensor_id;sensor_type;location;lat;lon;timestamp;pressure;altitude;pressure_sealevel;temperature
76898;BMP180;65856;52.178;21.176;2023-09-07T00:00:15;101520.60;;;15.50
76898;BMP180;65856;52.178;21.176;2023-09-07T00:02:40;101523.00;;;15.50
76898;BMP180;65856;52.178;21.176;2023-09-07T00:05:07;101523.80;;;15.50
76898;BMP180;65856;52.178;21.176;2023-09-07T00:07:34;101524.00;;;15.50
76898;BMP180;65856;52.178;21.176;2023-09-07T00:10:00;101523.00;;;15.50
76898;BMP180;65856;52.178;21.176;2023-09-07T00:12:26;101525.20;;;15.50
76898;BMP180;65856;52.178;21.176;2023-09-07T00:14:57;101525.60;;;15.48
76898;BMP180;65856;52.178;21.176;2023-09-07T00:17:24;101524.20;;;15.40
76898;BMP180;65856;52.178;21.176;2023-09-07T00:19:49;101523.20;;;15.40
76898;BMP180;65856;52.178;21.176;2023-09-07T00:22:17;101518.40;;;15.30
76898;BMP180;65856;52.178;21.176;2023-09-07T00:24:43;101520.40;;;15.30
76898;BMP180;65856;52.178;21.176;2023-09-07T00:27:10;101525.20;;;15.30
76898;BMP180;65856;52.178;21.176;2023-09-07T00:29:38;101520.40;;;15.30
76898;BMP180;65856;52.178;21.176;2023-09-07T00:32:04;101521.00;;;15.20
76898;BMP180;65856;52.178;21.176;2023-09-07T00:34:30;101518.00;;;15.10
76898;BMP180;65856;52.178;21.176;2023-09-07T00:36:56;101522.80;;;15.14
76898;BMP180;65856;52.178;21.176;2023-09-07T00:39:22;101521.80;;;15.12
76898;BMP180;65856;52.178;21.176;2023-09-07T00:41:47;101520.40;;;15.20
76898;BMP180;65856;52.178;21.176;2023-09-07T00:44:13;101516.20;;;15.20
76898;BMP180;65856;52.178;21.176;2023-09-07T00:46:39;101522.60;;;15.20
76898;BMP180;65856;52.178;21.176;2023-09-07T00:49:04;101523.40;;;15.20
76898;BMP180;65856;52.178;21.176;2023-09-07T00:51:31;101520.80;;;15.10
76898;BMP180;65856;52.178;21.176;2023-09-07T00:53:57;101520.60;;;15.10
76898;BMP180;65856;52.178;21.176;2023-09-07T00:56:25;101520.80;;;15.06
76898;BMP180;65856;52.178;21.176;2023-09-07T00:58:53;101520.80;;;15.10
76898;BMP180;65856;52.178;21.176;2023-09-07T01:01:21;101521.20;;;15.10
76898;BMP180;65856;52.178;21.176;2023-09-07T01:03:50;101519.00;;;15.10
76898;BMP180;65856;52.178;21.176;2023-09-07T01:06:25;101520.40;;;15.10
76898;BMP180;65856;52.178;21.176;2023-09-07T01:09:04;101517.20;;;15.00
76898;BMP180;65856;52.178;21.176;2023-09-07T01:11:38;101519.20;;;15.00
76898;BMP180;65856;52.178;21.176;2023-09-07T01:14:04;101517.20;;;15.00
76898;BMP180;65856;52.178;21.176;2023-09-07T01:16:31;101515.20;;;15.00
76898;BMP180;65856;52.178;21.176;2023-09-07T01:19:01;101513.00;;;15.00
76898;BMP180;65856;52.178;21.176;2023-09-07T01:21:34;101518.00;;;15.00
76898;BMP180;65856;52.178;21.176;2023-09-07T01:24:02;101517.40;;;15.00
76898;BMP180;65856;52.178;21.176;2023-09-07T01:26:29;101517.20;;;15.00
76898;BMP180;65856;52.178;21.176;2023-09-07T01:28:55;101517.60;;;14.98
76898;BMP180;65856;52.178;21.176;2023-09-07T01:31:21;101517.80;;;14.94
76898;BMP180;65856;52.178;21.176;2023-09-07T01:33:47;101521.20;;;15.00
76898;BMP180;65856;52.178;21.176;2023-09-07T01:36:12;101520.20;;;14.92
76898;BMP180;65856;52.178;21.176;2023-09-07T01:38:38;101527.00;;;14.94
76898;BMP180;65856;52.178;21.176;2023-09-07T01:41:03;101522.80;;;14.90
76898;BMP180;65856;52.178;21.176;2023-09-07T01:43:29;101516.00;;;14.90
76898;BMP180;65856;52.178;21.176;2023-09-07T01:45:54;101518.00;;;14.90
76898;BMP180;65856;52.178;21.176;2023-09-07T01:48:20;101509.80;;;14.80
76898;BMP180;65856;52.178;21.176;2023-09-07T01:50:45;101513.80;;;14.80
76898;BMP180;65856;52.178;21.176;2023-09-07T01:53:11;101511.40;;;14.80
76898;BMP180;65856;52.178;21.176;2023-09-07T01:55:36;101511.00;;;14.80
76898;BMP180;65856;52.178;21.176;2023-09-07T01:58:02;101514.00;;;14.80
76898;BMP180;65856;52.178;21.176;2023-09-07T02:00:28;101514.00;;;14.70
76898;BMP180;65856;52.178;21.176;2023-09-07T02:02:53;101518.00;;;14.70
76898;BMP180;65856;52.178;21.176;2023-09-07T02:05:19;101517.40;;;14.70
76898;BMP180;65856;52.178;21.176;2023-09-07T02:07:46;101516.20;;;14.70
76898;BMP180;65856;52.178;21.176;2023-09-07T02:10:15;101515.20;;;14.70
76898;BMP180;65856;52.178;21.176;2023-09-07T02:12:40;101512.80;;;14.70
76898;BMP180;65856;52.178;21.176;2023-09-07T02:15:06;101514.40;;;14.70
76898;BMP180;65856;52.178;21.176;2023-09-07T02:17:32;101519.00;;;14.70
76898;BMP180;65856;52.178;21.176;2023-09-07T02:19:57;101519.20;;;14.70
76898;BMP180;65856;52.178;21.176;2023-09-07T02:22:23;101527.00;;;14.50
76898;BMP180;65856;52.178;21.176;2023-09-07T02:24:49;101524.80;;;14.40
76898;BMP180;65856;52.178;21.176;2023-09-07T02:27:16;101518.40;;;14.40
76898;BMP180;65856;52.178;21.176;2023-09-07T02:29:41;101521.80;;;14.40
76898;BMP180;65856;52.178;21.176;2023-09-07T02:32:07;101526.60;;;14.40
76898;BMP180;65856;52.178;21.176;2023-09-07T02:34:32;101523.60;;;14.36
76898;BMP180;65856;52.178;21.176;2023-09-07T02:37:02;101523.40;;;14.40
76898;BMP180;65856;52.178;21.176;2023-09-07T02:39:29;101524.80;;;14.40
76898;BMP180;65856;52.178;21.176;2023-09-07T02:41:54;101523.80;;;14.40
76898;BMP180;65856;52.178;21.176;2023-09-07T02:44:20;101524.00;;;14.40
76898;BMP180;65856;52.178;21.176;2023-09-07T02:46:45;101522.20;;;14.40
76898;BMP180;65856;52.178;21.176;2023-09-07T02:49:11;101529.80;;;14.40
76898;BMP180;65856;52.178;21.176;2023-09-07T02:51:36;101528.80;;;14.40
76898;BMP180;65856;52.178;21.176;2023-09-07T02:54:03;101529.00;;;14.40
76898;BMP180;65856;52.178;21.176;2023-09-07T02:56:29;101532.00;;;14.40
76898;BMP180;65856;52.178;21.176;2023-09-07T02:58:55;101531.80;;;14.40
76898;BMP180;65856;52.178;21.176;2023-09-07T03:01:22;101530.80;;;14.40
76898;BMP180;65856;52.178;21.176;2023-09-07T03:03:47;101528.80;;;14.30
76898;BMP180;65856;52.178;21.176;2023-09-07T03:06:15;101527.80;;;14.30
76898;BMP180;65856;52.178;21.176;2023-09-07T03:08:44;101524.20;;;14.30
76898;BMP180;65856;52.178;21.176;2023-09-07T03:11:10;101528.00;;;14.30
76898;BMP180;65856;52.178;21.176;2023-09-07T03:13:37;101526.40;;;14.30
76898;BMP180;65856;52.178;21.176;2023-09-07T03:16:03;101532.00;;;14.30
76898;BMP180;65856;52.178;21.176;2023-09-07T03:18:30;101540.20;;;14.30
76898;BMP180;65856;52.178;21.176;2023-09-07T03:21:00;101540.00;;;14.20
76898;BMP180;65856;52.178;21.176;2023-09-07T03:23:31;101541.60;;;14.20
76898;BMP180;65856;52.178;21.176;2023-09-07T03:25:59;101540.20;;;14.20
76898;BMP180;65856;52.178;21.176;2023-09-07T03:28:25;101539.00;;;14.10
76898;BMP180;65856;52.178;21.176;2023-09-07T03:30:53;101540.40;;;14.10
76898;BMP180;65856;52.178;21.176;2023-09-07T03:33:18;101539.60;;;14.10
76898;BMP180;65856;52.178;21.176;2023-09-07T03:35:44;101538.60;;;14.10
76898;BMP180;65856;52.178;21.176;2023-09-07T03:38:10;101541.20;;;14.10
76898;BMP180;65856;52.178;21.176;2023-09-07T03:40:36;101543.60;;;14.10
76898;BMP180;65856;52.178;21.176;2023-09-07T03:43:02;101545.80;;;14.10
76898;BMP180;65856;52.178;21.176;2023-09-07T03:45:28;101545.20;;;14.10
76898;BMP180;65856;52.178;21.176;2023-09-07T03:47:54;101545.20;;;14.10
76898;BMP180;65856;52.178;21.176;2023-09-07T03:50:19;101548.00;;;14.10
76898;BMP180;65856;52.178;21.176;2023-09-07T03:52:45;101545.00;;;14.10
76898;BMP180;65856;52.178;21.176;2023-09-07T03:55:10;101554.80;;;14.10
76898;BMP180;65856;52.178;21.176;2023-09-07T03:57:36;101554.80;;;14.10
76898;BMP180;65856;52.178;21.176;2023-09-07T04:00:02;101552.00;;;14.12
76898;BMP180;65856;52.178;21.176;2023-09-07T04:02:32;101548.60;;;14.20
76898;BMP180;65856;52.178;21.176;2023-09-07T04:04:58;101545.40;;;14.14
76898;BMP180;65856;52.178;21.176;2023-09-07T04:07:23;101548.80;;;14.20
76898;BMP180;65856;52.178;21.176;2023-09-07T04:09:50;101546.40;;;14.18
76898;BMP180;65856;52.178;21.176;2023-09-07T04:12:15;101549.60;;;14.10
76898;BMP180;65856;52.178;21.176;2023-09-07T04:14:41;101548.60;;;14.10
76898;BMP180;65856;52.178;21.176;2023-09-07T04:17:07;101550.60;;;14.10
76898;BMP180;65856;52.178;21.176;2023-09-07T04:19:33;101549.00;;;14.10
76898;BMP180;65856;52.178;21.176;2023-09-07T04:22:00;101554.60;;;14.10
76898;BMP180;65856;52.178;21.176;2023-09-07T04:24:26;101555.40;;;14.14
76898;BMP180;65856;52.178;21.176;2023-09-07T04:26:59;101558.40;;;14.10
76898;BMP180;65856;52.178;21.176;2023-09-07T04:29:26;101558.00;;;14.10
76898;BMP180;65856;52.178;21.176;2023-09-07T04:31:51;101557.80;;;14.12
76898;BMP180;65856;52.178;21.176;2023-09-07T04:34:17;101552.20;;;14.12
76898;BMP180;65856;52.178;21.176;2023-09-07T04:36:42;101554.80;;;14.20
76898;BMP180;65856;52.178;21.176;2023-09-07T04:39:08;101553.00;;;14.20
76898;BMP180;65856;52.178;21.176;2023-09-07T04:41:33;101554.60;;;14.20
76898;BMP180;65856;52.178;21.176;2023-09-07T04:43:59;101559.20;;;14.30
76898;BMP180;65856;52.178;21.176;2023-09-07T04:46:24;101554.00;;;14.40
76898;BMP180;65856;52.178;21.176;2023-09-07T04:48:50;101557.20;;;14.50
76898;BMP180;65856;52.178;21.176;2023-09-07T04:51:15;101562.80;;;14.60
76898;BMP180;65856;52.178;21.176;2023-09-07T04:53:42;101563.20;;;14.60
76898;BMP180;65856;52.178;21.176;2023-09-07T04:56:08;101563.00;;;14.70
76898;BMP180;65856;52.178;21.176;2023-09-07T04:58:34;101565.20;;;14.70
76898;BMP180;65856;52.178;21.176;2023-09-07T05:01:05;101566.60;;;14.76
76898;BMP180;65856;52.178;21.176;2023-09-07T05:03:31;101569.40;;;14.80
76898;BMP180;65856;52.178;21.176;2023-09-07T05:05:59;101573.80;;;14.88
76898;BMP180;65856;52.178;21.176;2023-09-07T05:08:25;101578.20;;;14.90
76898;BMP180;65856;52.178;21.176;2023-09-07T05:11:02;101577.80;;;15.00
76898;BMP180;65856;52.178;21.176;2023-09-07T05:13:29;101576.60;;;15.10
76898;BMP180;65856;52.178;21.176;2023-09-07T05:15:56;101581.80;;;15.20
76898;BMP180;65856;52.178;21.176;2023-09-07T05:18:23;101585.20;;;15.22
76898;BMP180;65856;52.178;21.176;2023-09-07T05:20:49;101586.00;;;15.30
76898;BMP180;65856;52.178;21.176;2023-09-07T05:23:20;101587.20;;;15.40
76898;BMP180;65856;52.178;21.176;2023-09-07T05:25:52;101593.00;;;15.50
76898;BMP180;65856;52.178;21.176;2023-09-07T05:28:19;101595.80;;;15.58
76898;BMP180;65856;52.178;21.176;2023-09-07T05:30:46;101598.00;;;15.68
76898;BMP180;65856;52.178;21.176;2023-09-07T05:33:14;101589.20;;;15.72
76898;BMP180;65856;52.178;21.176;2023-09-07T05:35:41;101595.00;;;15.82
76898;BMP180;65856;52.178;21.176;2023-09-07T05:38:07;101593.40;;;15.94
76898;BMP180;65856;52.178;21.176;2023-09-07T05:40:36;101598.40;;;16.10
76898;BMP180;65856;52.178;21.176;2023-09-07T05:43:02;101598.40;;;16.20
76898;BMP180;65856;52.178;21.176;2023-09-07T05:45:30;101597.60;;;16.30
76898;BMP180;65856;52.178;21.176;2023-09-07T05:47:57;101601.40;;;16.40
76898;BMP180;65856;52.178;21.176;2023-09-07T05:50:22;101598.40;;;16.50
76898;BMP180;65856;52.178;21.176;2023-09-07T05:52:48;101605.60;;;16.62
76898;BMP180;65856;52.178;21.176;2023-09-07T05:55:13;101609.20;;;16.74
76898;BMP180;65856;52.178;21.176;2023-09-07T05:57:39;101610.00;;;16.90
76898;BMP180;65856;52.178;21.176;2023-09-07T06:00:05;101618.80;;;17.00
76898;BMP180;65856;52.178;21.176;2023-09-07T06:02:31;101609.80;;;17.10
76898;BMP180;65856;52.178;21.176;2023-09-07T06:04:57;101614.20;;;17.20
76898;BMP180;65856;52.178;21.176;2023-09-07T06:07:22;101616.00;;;17.30
76898;BMP180;65856;52.178;21.176;2023-09-07T06:09:48;101619.20;;;17.50
76898;BMP180;65856;52.178;21.176;2023-09-07T06:12:13;101621.00;;;17.64
76898;BMP180;65856;52.178;21.176;2023-09-07T06:14:39;101620.00;;;17.80
76898;BMP180;65856;52.178;21.176;2023-09-07T06:17:04;101625.80;;;17.98
76898;BMP180;65856;52.178;21.176;2023-09-07T06:19:31;101627.40;;;18.10
76898;BMP180;65856;52.178;21.176;2023-09-07T06:21:56;101624.40;;;18.24
76898;BMP180;65856;52.178;21.176;2023-09-07T06:24:22;101623.60;;;18.40
76898;BMP180;65856;52.178;21.176;2023-09-07T06:26:47;101625.80;;;18.50
76898;BMP180;65856;52.178;21.176;2023-09-07T06:29:13;101624.80;;;18.68
76898;BMP180;65856;52.178;21.176;2023-09-07T06:31:39;101629.20;;;18.80
76898;BMP180;65856;52.178;21.176;2023-09-07T06:34:04;101628.60;;;18.92
76898;BMP180;65856;52.178;21.176;2023-09-07T06:36:30;101631.00;;;19.10
76898;BMP180;65856;52.178;21.176;2023-09-07T06:38:56;101631.00;;;19.28
76898;BMP180;65856;52.178;21.176;2023-09-07T06:41:21;101636.20;;;19.40
76898;BMP180;65856;52.178;21.176;2023-09-07T06:43:47;101633.40;;;19.60
76898;BMP180;65856;52.178;21.176;2023-09-07T06:46:13;101631.20;;;19.80
76898;BMP180;65856;52.178;21.176;2023-09-07T06:48:38;101632.80;;;20.04
76898;BMP180;65856;52.178;21.176;2023-09-07T06:51:05;101632.80;;;20.30
76898;BMP180;65856;52.178;21.176;2023-09-07T06:53:32;101633.40;;;20.50
76898;BMP180;65856;52.178;21.176;2023-09-07T06:56:02;101634.60;;;20.70
76898;BMP180;65856;52.178;21.176;2023-09-07T06:58:28;101638.20;;;21.00
76898;BMP180;65856;52.178;21.176;2023-09-07T07:01:01;101641.80;;;21.26
76898;BMP180;65856;52.178;21.176;2023-09-07T07:03:29;101646.40;;;21.52
76898;BMP180;65856;52.178;21.176;2023-09-07T07:05:56;101638.60;;;21.80
76898;BMP180;65856;52.178;21.176;2023-09-07T07:08:22;101643.00;;;22.10
76898;BMP180;65856;52.178;21.176;2023-09-07T07:10:49;101646.20;;;22.30
76898;BMP180;65856;52.178;21.176;2023-09-07T07:13:15;101644.20;;;22.50
76898;BMP180;65856;52.178;21.176;2023-09-07T07:15:41;101647.60;;;22.70
76898;BMP180;65856;52.178;21.176;2023-09-07T07:18:07;101650.00;;;23.00
76898;BMP180;65856;52.178;21.176;2023-09-07T07:20:41;101653.40;;;23.28
76898;BMP180;65856;52.178;21.176;2023-09-07T07:23:07;101650.80;;;23.60
76898;BMP180;65856;52.178;21.176;2023-09-07T07:25:33;101654.20;;;23.90
76898;BMP180;65856;52.178;21.176;2023-09-07T07:28:01;101658.80;;;24.22
76898;BMP180;65856;52.178;21.176;2023-09-07T07:30:31;101658.80;;;24.48
76898;BMP180;65856;52.178;21.176;2023-09-07T07:33:02;101660.00;;;24.60
76898;BMP180;65856;52.178;21.176;2023-09-07T07:35:32;101666.00;;;24.70
76898;BMP180;65856;52.178;21.176;2023-09-07T07:38:00;101661.80;;;24.90
76898;BMP180;65856;52.178;21.176;2023-09-07T07:40:26;101664.60;;;25.20
76898;BMP180;65856;52.178;21.176;2023-09-07T07:42:53;101666.40;;;25.34
76898;BMP180;65856;52.178;21.176;2023-09-07T07:45:19;101668.00;;;25.60
76898;BMP180;65856;52.178;21.176;2023-09-07T07:47:52;101667.60;;;25.70
76898;BMP180;65856;52.178;21.176;2023-09-07T07:50:18;101666.20;;;25.70
76898;BMP180;65856;52.178;21.176;2023-09-07T07:52:44;101669.60;;;25.78
76898;BMP180;65856;52.178;21.176;2023-09-07T07:55:10;101669.40;;;25.84
76898;BMP180;65856;52.178;21.176;2023-09-07T07:57:36;101675.60;;;26.00
76898;BMP180;65856;52.178;21.176;2023-09-07T08:00:04;101671.40;;;26.10
76898;BMP180;65856;52.178;21.176;2023-09-07T08:02:32;101678.20;;;26.32
76898;BMP180;65856;52.178;21.176;2023-09-07T08:04:57;101679.40;;;26.58
76898;BMP180;65856;52.178;21.176;2023-09-07T08:07:24;101682.60;;;26.80
76898;BMP180;65856;52.178;21.176;2023-09-07T08:09:50;101684.00;;;26.94
76898;BMP180;65856;52.178;21.176;2023-09-07T08:12:16;101684.80;;;27.16
76898;BMP180;65856;52.178;21.176;2023-09-07T08:14:42;101684.20;;;27.40
76898;BMP180;65856;52.178;21.176;2023-09-07T08:17:08;101686.60;;;27.50
76898;BMP180;65856;52.178;21.176;2023-09-07T08:19:34;101688.80;;;27.54
76898;BMP180;65856;52.178;21.176;2023-09-07T08:21:59;101687.40;;;27.60
76898;BMP180;65856;52.178;21.176;2023-09-07T08:24:29;101683.00;;;27.80
76898;BMP180;65856;52.178;21.176;2023-09-07T08:26:54;101685.60;;;27.98
76898;BMP180;65856;52.178;21.176;2023-09-07T08:29:22;101690.20;;;28.10
76898;BMP180;65856;52.178;21.176;2023-09-07T08:31:50;101684.00;;;28.20
76898;BMP180;65856;52.178;21.176;2023-09-07T08:34:15;101687.20;;;28.20
76898;BMP180;65856;52.178;21.176;2023-09-07T08:36:41;101686.00;;;28.30
76898;BMP180;65856;52.178;21.176;2023-09-07T08:39:07;101686.40;;;28.40
76898;BMP180;65856;52.178;21.176;2023-09-07T08:41:40;101688.40;;;28.40
76898;BMP180;65856;52.178;21.176;2023-09-07T08:44:15;101686.40;;;28.40
76898;BMP180;65856;52.178;21.176;2023-09-07T08:46:43;101685.00;;;28.50
76898;BMP180;65856;52.178;21.176;2023-09-07T08:49:10;101684.00;;;28.50
76898;BMP180;65856;52.178;21.176;2023-09-07T08:51:38;101688.40;;;28.50
76898;BMP180;65856;52.178;21.176;2023-09-07T08:54:05;101684.00;;;28.60
76898;BMP180;65856;52.178;21.176;2023-09-07T08:56:33;101683.20;;;28.70
76898;BMP180;65856;52.178;21.176;2023-09-07T08:58:59;101687.40;;;28.70
76898;BMP180;65856;52.178;21.176;2023-09-07T09:01:24;101687.20;;;28.80
76898;BMP180;65856;52.178;21.176;2023-09-07T09:03:50;101685.00;;;28.82
76898;BMP180;65856;52.178;21.176;2023-09-07T09:06:19;101683.40;;;28.90
76898;BMP180;65856;52.178;21.176;2023-09-07T09:08:48;101684.40;;;28.90
76898;BMP180;65856;52.178;21.176;2023-09-07T09:11:16;101685.80;;;28.90
76898;BMP180;65856;52.178;21.176;2023-09-07T09:13:43;101686.20;;;28.90
76898;BMP180;65856;52.178;21.176;2023-09-07T09:16:10;101685.60;;;28.90
76898;BMP180;65856;52.178;21.176;2023-09-07T09:18:36;101681.60;;;28.90
76898;BMP180;65856;52.178;21.176;2023-09-07T09:21:03;101682.60;;;28.90
76898;BMP180;65856;52.178;21.176;2023-09-07T09:26:03;101683.40;;;28.92
76898;BMP180;65856;52.178;21.176;2023-09-07T09:28:34;101681.00;;;29.00
76898;BMP180;65856;52.178;21.176;2023-09-07T09:31:02;101681.40;;;28.96
76898;BMP180;65856;52.178;21.176;2023-09-07T09:33:31;101682.80;;;28.90
76898;BMP180;65856;52.178;21.176;2023-09-07T09:35:58;101683.20;;;28.90
76898;BMP180;65856;52.178;21.176;2023-09-07T09:38:25;101682.40;;;28.90
76898;BMP180;65856;52.178;21.176;2023-09-07T09:40:52;101683.20;;;29.00
76898;BMP180;65856;52.178;21.176;2023-09-07T09:43:20;101679.40;;;29.00
76898;BMP180;65856;52.178;21.176;2023-09-07T09:45:46;101679.80;;;29.00
76898;BMP180;65856;52.178;21.176;2023-09-07T09:48:13;101678.80;;;28.96
76898;BMP180;65856;52.178;21.176;2023-09-07T09:50:40;101677.00;;;28.90
76898;BMP180;65856;52.178;21.176;2023-09-07T09:53:06;101677.40;;;28.90
76898;BMP180;65856;52.178;21.176;2023-09-07T09:55:33;101681.40;;;28.80
76898;BMP180;65856;52.178;21.176;2023-09-07T09:57:59;101679.60;;;28.80
76898;BMP180;65856;52.178;21.176;2023-09-07T10:00:25;101683.80;;;28.80
76898;BMP180;65856;52.178;21.176;2023-09-07T10:03:17;101681.60;;;28.76
76898;BMP180;65856;52.178;21.176;2023-09-07T10:05:52;101680.00;;;28.70
76898;BMP180;65856;52.178;21.176;2023-09-07T10:08:20;101674.20;;;28.60
76898;BMP180;65856;52.178;21.176;2023-09-07T10:10:52;101672.60;;;28.60
76898;BMP180;65856;52.178;21.176;2023-09-07T10:13:32;101676.60;;;28.60
76898;BMP180;65856;52.178;21.176;2023-09-07T10:16:06;101671.60;;;28.60
76898;BMP180;65856;52.178;21.176;2023-09-07T10:18:37;101673.20;;;28.60
76898;BMP180;65856;52.178;21.176;2023-09-07T10:21:04;101672.80;;;28.60
76898;BMP180;65856;52.178;21.176;2023-09-07T10:23:41;101671.00;;;28.54
76898;BMP180;65856;52.178;21.176;2023-09-07T10:26:14;101673.40;;;28.50
76898;BMP180;65856;52.178;21.176;2023-09-07T10:28:42;101671.80;;;28.50
76898;BMP180;65856;52.178;21.176;2023-09-07T10:31:17;101672.40;;;28.48
76898;BMP180;65856;52.178;21.176;2023-09-07T10:33:45;101676.60;;;28.34
76898;BMP180;65856;52.178;21.176;2023-09-07T10:36:27;101676.20;;;28.18
76898;BMP180;65856;52.178;21.176;2023-09-07T10:38:56;101678.40;;;28.00
76898;BMP180;65856;52.178;21.176;2023-09-07T10:41:22;101674.60;;;27.80
76898;BMP180;65856;52.178;21.176;2023-09-07T10:43:53;101668.20;;;27.70
76898;BMP180;65856;52.178;21.176;2023-09-07T10:46:23;101665.20;;;27.70
76898;BMP180;65856;52.178;21.176;2023-09-07T10:48:51;101670.20;;;27.80
76898;BMP180;65856;52.178;21.176;2023-09-07T10:51:21;101670.20;;;27.90
76898;BMP180;65856;52.178;21.176;2023-09-07T10:53:47;101666.00;;;28.00
76898;BMP180;65856;52.178;21.176;2023-09-07T10:56:12;101669.00;;;28.10
76898;BMP180;65856;52.178;21.176;2023-09-07T10:58:38;101667.00;;;28.20
76898;BMP180;65856;52.178;21.176;2023-09-07T11:01:06;101663.80;;;28.30
76898;BMP180;65856;52.178;21.176;2023-09-07T11:03:35;101667.40;;;28.30
76898;BMP180;65856;52.178;21.176;2023-09-07T11:06:31;101665.40;;;28.30
76898;BMP180;65856;52.178;21.176;2023-09-07T11:09:00;101667.20;;;28.20
76898;BMP180;65856;52.178;21.176;2023-09-07T11:11:31;101662.40;;;28.00
76898;BMP180;65856;52.178;21.176;2023-09-07T11:13:59;101662.40;;;27.90
76898;BMP180;65856;52.178;21.176;2023-09-07T11:16:25;101656.20;;;27.70
76898;BMP180;65856;52.178;21.176;2023-09-07T11:18:52;101665.20;;;27.50
76898;BMP180;65856;52.178;21.176;2023-09-07T11:21:20;101662.20;;;27.40
76898;BMP180;65856;52.178;21.176;2023-09-07T11:23:45;101658.20;;;27.38
76898;BMP180;65856;52.178;21.176;2023-09-07T11:26:11;101658.20;;;27.30
76898;BMP180;65856;52.178;21.176;2023-09-07T11:28:38;101657.00;;;27.30
76898;BMP180;65856;52.178;21.176;2023-09-07T11:31:03;101657.80;;;27.20
76898;BMP180;65856;52.178;21.176;2023-09-07T11:33:32;101652.60;;;27.20
76898;BMP180;65856;52.178;21.176;2023-09-07T11:35:58;101655.20;;;27.20
76898;BMP180;65856;52.178;21.176;2023-09-07T11:38:30;101647.40;;;27.20
76898;BMP180;65856;52.178;21.176;2023-09-07T11:41:00;101641.60;;;27.30
76898;BMP180;65856;52.178;21.176;2023-09-07T11:43:26;101649.60;;;27.30
76898;BMP180;65856;52.178;21.176;2023-09-07T11:45:51;101648.00;;;27.24
76898;BMP180;65856;52.178;21.176;2023-09-07T11:48:17;101647.00;;;27.20
76898;BMP180;65856;52.178;21.176;2023-09-07T11:50:43;101648.60;;;27.20
76898;BMP180;65856;52.178;21.176;2023-09-07T11:53:09;101652.00;;;27.18
76898;BMP180;65856;52.178;21.176;2023-09-07T11:55:35;101648.00;;;27.10
76898;BMP180;65856;52.178;21.176;2023-09-07T11:58:04;101645.40;;;27.04
76898;BMP180;65856;52.178;21.176;2023-09-07T12:00:33;101647.40;;;27.10
76898;BMP180;65856;52.178;21.176;2023-09-07T12:02:59;101643.00;;;27.10
76898;BMP180;65856;52.178;21.176;2023-09-07T12:05:24;101643.00;;;27.20
76898;BMP180;65856;52.178;21.176;2023-09-07T12:07:50;101644.00;;;27.20
76898;BMP180;65856;52.178;21.176;2023-09-07T12:10:16;101642.00;;;27.30
76898;BMP180;65856;52.178;21.176;2023-09-07T12:12:43;101640.00;;;27.30
76898;BMP180;65856;52.178;21.176;2023-09-07T12:15:10;101639.00;;;27.30
76898;BMP180;65856;52.178;21.176;2023-09-07T12:17:39;101636.40;;;27.30
76898;BMP180;65856;52.178;21.176;2023-09-07T12:20:06;101640.40;;;27.30
76898;BMP180;65856;52.178;21.176;2023-09-07T12:22:38;101637.60;;;27.32
76898;BMP180;65856;52.178;21.176;2023-09-07T12:25:07;101637.80;;;27.32
76898;BMP180;65856;52.178;21.176;2023-09-07T12:27:36;101634.60;;;27.30
76898;BMP180;65856;52.178;21.176;2023-09-07T12:30:03;101634.40;;;27.30
76898;BMP180;65856;52.178;21.176;2023-09-07T12:32:32;101635.00;;;27.30
76898;BMP180;65856;52.178;21.176;2023-09-07T12:34:59;101631.60;;;27.30
76898;BMP180;65856;52.178;21.176;2023-09-07T12:37:24;101633.60;;;27.20
76898;BMP180;65856;52.178;21.176;2023-09-07T12:39:51;101633.80;;;27.20
76898;BMP180;65856;52.178;21.176;2023-09-07T12:42:17;101633.80;;;27.20
76898;BMP180;65856;52.178;21.176;2023-09-07T12:44:44;101626.00;;;27.16
76898;BMP180;65856;52.178;21.176;2023-09-07T12:47:09;101628.60;;;27.14
76898;BMP180;65856;52.178;21.176;2023-09-07T12:49:35;101623.00;;;27.10
76898;BMP180;65856;52.178;21.176;2023-09-07T12:52:01;101617.00;;;27.00
76898;BMP180;65856;52.178;21.176;2023-09-07T12:54:28;101618.80;;;26.90
76898;BMP180;65856;52.178;21.176;2023-09-07T12:56:53;101619.00;;;26.80
76898;BMP180;65856;52.178;21.176;2023-09-07T12:59:19;101622.00;;;26.80
76898;BMP180;65856;52.178;21.176;2023-09-07T13:01:44;101618.60;;;26.70
76898;BMP180;65856;52.178;21.176;2023-09-07T13:04:10;101616.00;;;26.60
76898;BMP180;65856;52.178;21.176;2023-09-07T13:06:37;101605.40;;;26.50
76898;BMP180;65856;52.178;21.176;2023-09-07T13:09:03;101597.00;;;26.42
76898;BMP180;65856;52.178;21.176;2023-09-07T13:11:30;101595.80;;;26.40
76898;BMP180;65856;52.178;21.176;2023-09-07T13:13:55;101592.00;;;26.42
76898;BMP180;65856;52.178;21.176;2023-09-07T13:16:21;101588.00;;;26.50
76898;BMP180;65856;52.178;21.176;2023-09-07T13:18:46;101587.40;;;26.50
76898;BMP180;65856;52.178;21.176;2023-09-07T13:21:12;101584.60;;;26.50
76898;BMP180;65856;52.178;21.176;2023-09-07T13:23:37;101586.00;;;26.60
76898;BMP180;65856;52.178;21.176;2023-09-07T13:26:03;101586.40;;;26.60
76898;BMP180;65856;52.178;21.176;2023-09-07T13:28:28;101585.80;;;26.60
76898;BMP180;65856;52.178;21.176;2023-09-07T13:30:54;101587.00;;;26.70
76898;BMP180;65856;52.178;21.176;2023-09-07T13:33:19;101583.20;;;26.70
76898;BMP180;65856;52.178;21.176;2023-09-07T13:35:45;101580.80;;;26.70
76898;BMP180;65856;52.178;21.176;2023-09-07T13:38:11;101580.40;;;26.80
76898;BMP180;65856;52.178;21.176;2023-09-07T13:40:38;101578.80;;;26.80
76898;BMP180;65856;52.178;21.176;2023-09-07T13:43:03;101576.60;;;26.80
76898;BMP180;65856;52.178;21.176;2023-09-07T13:45:29;101576.40;;;26.88